Winding Gulf, West Virginia
Current Conditions -  °F | °C
As of 7:58 AM on Thursday 27 Nov 2014 (Local Time) from KBKW Reporting Station
Light Snow Light Snow  
Wind Chill: 23°   Ceiling: 200
Heat Index: 31°   Visibility: 1mi
Dew Point: 29°   Wind: 9mph
Humidity: 92%   Direction: 330°NNW
Pressure: 30"   Gusts: NA
Location:  37.6583°N, 81.237°W
Report Text: KBKW 271258Z AUTO 33008KT 1SM -SN BR OVC002 M01/M02 A3000 RMK AO2 P0000 T10061017
Loading
Personal Weather Stations






























Interactive Weather Map New forecast layout! Learn more

10-Day Weather Forecast

Advertisements
Track Severe Weather on mobile